createdAt,value
2022-11-18T00:00:22.587Z,966.3
2022-11-18T00:02:24.495Z,966.3
2022-11-18T00:06:27.512Z,966.3
2022-11-18T00:08:29.000Z,966.3
2022-11-18T00:10:30.242Z,966.3
2022-11-18T00:12:32.185Z,966.3
2022-11-18T00:14:33.438Z,966.3
2022-11-18T00:16:34.716Z,966.3
2022-11-18T00:18:35.754Z,966.4
2022-11-18T00:20:37.218Z,966.4
2022-11-18T00:22:38.948Z,966.3
2022-11-18T00:24:40.432Z,966.4
2022-11-18T00:26:42.317Z,966.3
2022-11-18T00:28:43.429Z,966.3
2022-11-18T00:30:44.645Z,966.2
2022-11-18T00:32:45.945Z,966.2
2022-11-18T00:34:47.122Z,966.1
2022-11-18T00:36:48.321Z,966.2
2022-11-18T00:38:49.801Z,966
2022-11-18T00:40:51.042Z,966.1
2022-11-18T00:42:52.477Z,966.2
2022-11-18T00:44:54.254Z,966.2
2022-11-18T00:46:55.886Z,966.1
2022-11-18T00:48:57.020Z,966.2
2022-11-18T00:50:58.309Z,966.1
2022-11-18T00:52:59.714Z,966.1
2022-11-18T00:55:01.069Z,966.1
2022-11-18T00:57:02.051Z,966.1
2022-11-18T00:59:03.113Z,966.1
2022-11-18T01:01:04.504Z,966.1
2022-11-18T01:05:07.330Z,966.2
2022-11-18T01:07:08.464Z,966.1
2022-11-18T01:09:10.247Z,966.1
2022-11-18T01:11:12.128Z,966.1
2022-11-18T01:13:13.783Z,966
2022-11-18T01:15:15.036Z,966
2022-11-18T01:17:16.829Z,966
2022-11-18T01:19:19.017Z,966.2
2022-11-18T01:21:20.032Z,966.1
2022-11-18T01:23:21.161Z,966.2
2022-11-18T01:25:22.393Z,966.3
2022-11-18T01:27:23.784Z,966.2
2022-11-18T01:31:26.086Z,966.3
2022-11-18T01:33:27.584Z,966.3
2022-11-18T01:35:28.625Z,966.3
2022-11-18T01:37:30.405Z,966.3
2022-11-18T01:41:32.647Z,966.3
2022-11-18T01:43:34.416Z,966.4
2022-11-18T01:45:36.356Z,966.4
2022-11-18T01:47:37.879Z,966.3
2022-11-18T01:49:39.435Z,966.3
2022-11-18T01:51:40.937Z,966.4
2022-11-18T01:53:42.349Z,966.4
2022-11-18T01:55:44.131Z,966.5
2022-11-18T01:57:45.091Z,966.5
2022-11-18T01:59:46.406Z,966.5
2022-11-18T02:01:47.595Z,966.5
2022-11-18T02:03:48.973Z,966.6
2022-11-18T02:05:50.877Z,966.5
2022-11-18T02:07:52.178Z,966.5
2022-11-18T02:09:53.541Z,966.6
2022-11-18T02:11:54.806Z,966.6
2022-11-18T02:13:56.512Z,966.5
2022-11-18T02:15:58.309Z,966.5
2022-11-18T02:17:59.913Z,966.5
2022-11-18T02:20:01.108Z,966.5
2022-11-18T02:22:02.738Z,966.5
2022-11-18T02:24:03.825Z,966.6
2022-11-18T02:26:05.183Z,966.6
2022-11-18T02:30:08.598Z,966.6
2022-11-18T02:32:09.751Z,966.6
2022-11-18T02:34:11.105Z,966.6
2022-11-18T02:36:12.587Z,966.6
2022-11-18T02:38:14.187Z,966.7
2022-11-18T02:40:15.630Z,966.7
2022-11-18T02:42:16.934Z,966.7
2022-11-18T02:44:18.168Z,966.5
2022-11-18T02:46:19.646Z,966.6
2022-11-18T02:48:21.453Z,966.6
2022-11-18T02:50:23.115Z,966.7
2022-11-18T02:52:24.070Z,966.7
2022-11-18T02:54:25.749Z,966.7
2022-11-18T02:56:27.659Z,966.6
2022-11-18T02:58:29.335Z,966.6
2022-11-18T03:00:30.743Z,966.7
2022-11-18T03:02:32.225Z,966.8
2022-11-18T03:04:33.993Z,966.8
2022-11-18T03:07:19.033Z,966.8
2022-11-18T03:09:20.167Z,966.8
2022-11-18T03:11:21.270Z,966.8
2022-11-18T03:13:22.914Z,966.9
2022-11-18T03:15:24.529Z,966.8
2022-11-18T03:17:25.888Z,966.8
2022-11-18T03:19:27.222Z,966.8
2022-11-18T03:21:28.205Z,966.8
2022-11-18T03:23:30.048Z,966.9
2022-11-18T03:25:31.271Z,966.9
2022-11-18T03:27:32.437Z,966.9
2022-11-18T03:29:34.071Z,966.9
2022-11-18T03:31:35.682Z,966.9
2022-11-18T03:33:37.591Z,966.9
2022-11-18T03:35:38.988Z,967
2022-11-18T03:37:40.750Z,967
2022-11-18T03:39:42.003Z,966.9
2022-11-18T03:41:43.070Z,967
2022-11-18T03:43:44.748Z,967
2022-11-18T03:45:45.960Z,967.1
2022-11-18T03:47:47.279Z,967.1
2022-11-18T03:49:48.324Z,967.1
2022-11-18T03:51:50.155Z,967.1
2022-11-18T03:53:51.804Z,967
2022-11-18T03:55:52.842Z,967.1
2022-11-18T03:59:55.507Z,967.1
2022-11-18T04:01:56.492Z,967.1
2022-11-18T04:03:57.448Z,967.1
2022-11-18T04:05:58.525Z,967.2
2022-11-18T04:07:59.990Z,967.1
2022-11-18T04:10:01.474Z,967.2
2022-11-18T04:12:02.948Z,967.1
2022-11-18T04:14:04.418Z,967.2
2022-11-18T04:16:06.183Z,967.2
2022-11-18T04:18:08.131Z,967.2
2022-11-18T04:20:09.157Z,967.3
2022-11-18T04:22:10.193Z,967.3
2022-11-18T04:24:11.519Z,967.3
2022-11-18T04:26:12.589Z,967.3
2022-11-18T04:28:14.478Z,967.4
2022-11-18T04:30:15.530Z,967.3
2022-11-18T04:32:16.811Z,967.3
2022-11-18T04:34:17.884Z,967.3
2022-11-18T04:36:19.557Z,967.4
2022-11-18T04:38:22.034Z,967.4
2022-11-18T04:40:21.834Z,967.4
2022-11-18T04:42:23.250Z,967.5
2022-11-18T04:44:24.864Z,967.5
2022-11-18T04:46:26.625Z,967.5
2022-11-18T04:48:28.358Z,967.4
2022-11-18T04:50:29.436Z,967.4
2022-11-18T04:52:30.484Z,967.4
2022-11-18T04:54:31.632Z,967.3
2022-11-18T04:56:32.872Z,967.3
2022-11-18T04:58:34.686Z,967.4
2022-11-18T05:00:35.762Z,967.5
2022-11-18T05:04:38.502Z,967.5
2022-11-18T05:06:39.650Z,967.5
2022-11-18T05:08:41.164Z,967.5
2022-11-18T05:10:42.698Z,967.6
2022-11-18T05:12:43.781Z,967.7
2022-11-18T05:14:49.515Z,967.6
2022-11-18T05:16:47.018Z,967.6
2022-11-18T05:18:48.691Z,967.6
2022-11-18T05:20:50.081Z,967.6
2022-11-18T05:22:51.710Z,967.6
2022-11-18T05:24:52.925Z,967.7
2022-11-18T05:26:54.535Z,967.7
2022-11-18T05:28:56.046Z,967.7
2022-11-18T05:30:57.313Z,967.7
2022-11-18T05:32:58.994Z,967.7
2022-11-18T05:35:00.432Z,967.8
2022-11-18T05:37:01.894Z,967.9
2022-11-18T05:39:03.579Z,967.9
2022-11-18T05:41:05.106Z,967.8
2022-11-18T05:43:06.919Z,967.9
2022-11-18T05:45:07.977Z,967.9
2022-11-18T05:47:09.742Z,968
2022-11-18T05:49:11.153Z,968
2022-11-18T05:51:12.710Z,967.9
2022-11-18T05:53:14.653Z,968
2022-11-18T05:55:16.488Z,968
2022-11-18T05:57:17.526Z,968.1
2022-11-18T05:59:18.982Z,968.1
2022-11-18T06:01:20.750Z,968.1
2022-11-18T06:03:24.962Z,968.1
2022-11-18T06:05:22.987Z,968.2
2022-11-18T06:07:24.674Z,968.2
2022-11-18T06:09:25.625Z,968.2
2022-11-18T06:13:28.325Z,968.2
2022-11-18T06:15:29.556Z,968.3
2022-11-18T06:17:31.298Z,968.3
2022-11-18T06:19:32.711Z,968.4
2022-11-18T06:23:35.280Z,968.4
2022-11-18T06:25:36.911Z,968.4
2022-11-18T06:27:38.758Z,968.4
2022-11-18T06:29:40.507Z,968.4
2022-11-18T06:31:41.930Z,968.4
2022-11-18T06:33:43.662Z,968.5
2022-11-18T06:35:45.527Z,968.5
2022-11-18T06:37:46.924Z,968.4
2022-11-18T06:39:48.824Z,968.5
2022-11-18T06:41:49.884Z,968.6
2022-11-18T06:43:51.277Z,968.5
2022-11-18T06:45:52.960Z,968.5
2022-11-18T06:47:54.653Z,968.6
2022-11-18T06:49:56.274Z,968.6
2022-11-18T06:51:58.029Z,968.7
2022-11-18T06:53:59.250Z,968.7
2022-11-18T06:56:01.000Z,968.8
2022-11-18T06:58:02.186Z,968.7
2022-11-18T07:00:03.569Z,968.8
2022-11-18T07:02:04.661Z,968.8
2022-11-18T07:04:06.548Z,968.8
2022-11-18T07:06:07.707Z,968.8
2022-11-18T07:08:09.224Z,968.9
2022-11-18T07:12:12.014Z,968.9
2022-11-18T07:14:13.624Z,968.9
2022-11-18T07:16:14.667Z,969
2022-11-18T07:18:16.033Z,968.9
2022-11-18T07:20:17.058Z,968.9
2022-11-18T07:22:18.515Z,969
2022-11-18T07:24:20.131Z,969
2022-11-18T07:26:21.242Z,969
2022-11-18T07:28:23.012Z,969.1
2022-11-18T07:30:24.005Z,969
2022-11-18T07:32:24.953Z,969
2022-11-18T07:34:26.592Z,969
2022-11-18T07:36:30.992Z,969
2022-11-18T07:38:29.271Z,969.1
2022-11-18T07:40:30.385Z,969.2
2022-11-18T07:42:32.177Z,969.2
2022-11-18T07:44:33.874Z,969.2
2022-11-18T07:46:35.652Z,969.3
2022-11-18T07:48:37.360Z,969.3
2022-11-18T07:50:41.976Z,969.3
2022-11-18T07:52:40.308Z,969.4
2022-11-18T07:54:42.122Z,969.3
2022-11-18T07:56:43.381Z,969.5
2022-11-18T07:58:45.079Z,969.4
2022-11-18T08:00:46.244Z,969.4
2022-11-18T08:02:47.927Z,969.4
2022-11-18T08:04:49.261Z,969.5
2022-11-18T08:06:51.079Z,969.5
2022-11-18T08:10:54.182Z,969.5
2022-11-18T08:12:55.395Z,969.6
2022-11-18T08:14:57.105Z,969.5
2022-11-18T08:16:58.089Z,969.6
2022-11-18T08:18:59.331Z,969.6
2022-11-18T08:21:00.593Z,969.6
2022-11-18T08:23:02.459Z,969.7
2022-11-18T08:25:03.781Z,969.8
2022-11-18T08:27:04.947Z,969.8
2022-11-18T08:29:06.774Z,969.8
2022-11-18T08:31:08.513Z,969.8
2022-11-18T08:33:09.935Z,969.8
2022-11-18T08:37:12.561Z,969.9
2022-11-18T08:39:13.559Z,969.8
2022-11-18T08:41:15.353Z,969.9
2022-11-18T08:43:16.447Z,969.8
2022-11-18T08:47:20.060Z,969.9
2022-11-18T08:49:21.781Z,969.9
2022-11-18T08:51:22.940Z,969.9
2022-11-18T08:53:24.004Z,969.9
2022-11-18T08:55:25.936Z,970
2022-11-18T08:57:27.649Z,970
2022-11-18T08:59:29.335Z,970
2022-11-18T09:01:30.479Z,969.9
2022-11-18T09:03:32.140Z,970
2022-11-18T09:05:33.349Z,970
2022-11-18T09:07:34.988Z,970
2022-11-18T09:09:36.064Z,970
2022-11-18T09:11:38.039Z,970.1
2022-11-18T09:14:00.838Z,970.1
2022-11-18T09:15:40.476Z,970.1
2022-11-18T09:17:41.853Z,970.2
2022-11-18T09:19:47.899Z,970.2
2022-11-18T09:21:44.289Z,970.2
2022-11-18T09:23:46.094Z,970.3
2022-11-18T09:25:47.659Z,970.2
2022-11-18T09:27:49.471Z,970.2
2022-11-18T09:29:50.823Z,970.2
2022-11-18T09:31:51.879Z,970.3
2022-11-18T09:35:54.388Z,970.3
2022-11-18T09:37:55.562Z,970.3
2022-11-18T09:39:57.423Z,970.3
2022-11-18T09:41:58.980Z,970.4
2022-11-18T09:44:00.877Z,970.4
2022-11-18T09:46:02.355Z,970.4
2022-11-18T09:48:03.600Z,970.5
2022-11-18T09:50:20.751Z,970.4
2022-11-18T09:50:50.578Z,970.5
2022-11-18T09:52:50.110Z,970.5
2022-11-18T09:54:51.393Z,970.5
2022-11-18T09:56:52.586Z,970.5
2022-11-18T09:58:53.769Z,970.5
2022-11-18T10:00:55.237Z,970.6
2022-11-18T10:02:56.622Z,970.7
2022-11-18T10:04:58.143Z,970.7
2022-11-18T10:06:59.871Z,970.7
2022-11-18T10:09:01.352Z,970.7
2022-11-18T10:11:03.052Z,970.7
2022-11-18T10:13:04.222Z,970.8
2022-11-18T10:15:06.081Z,970.7
2022-11-18T10:17:07.068Z,970.7
2022-11-18T10:19:08.713Z,970.8
2022-11-18T10:21:10.003Z,970.7
2022-11-18T10:23:11.204Z,970.8
2022-11-18T10:25:12.714Z,970.8
2022-11-18T10:27:14.272Z,970.8
2022-11-18T10:29:15.443Z,970.9
2022-11-18T10:31:17.181Z,970.8
2022-11-18T10:33:18.714Z,970.9
2022-11-18T10:35:20.163Z,970.8
2022-11-18T10:37:28.150Z,970.8
2022-11-18T10:39:23.260Z,970.8
2022-11-18T10:41:25.060Z,970.9
2022-11-18T10:43:26.883Z,970.9
2022-11-18T10:45:28.188Z,970.9
2022-11-18T10:47:30.061Z,970.9
2022-11-18T10:49:31.033Z,970.9
2022-11-18T10:51:32.090Z,970.9
2022-11-18T10:53:33.696Z,971
2022-11-18T10:55:35.554Z,971
2022-11-18T10:57:36.716Z,971
2022-11-18T10:59:38.615Z,971
2022-11-18T11:01:39.924Z,971
2022-11-18T11:03:41.485Z,971
2022-11-18T11:05:43.085Z,971
2022-11-18T11:07:44.915Z,970.9
2022-11-18T11:09:46.032Z,971
2022-11-18T11:11:55.761Z,971
2022-11-18T11:13:49.703Z,971
2022-11-18T11:15:50.977Z,971
2022-11-18T11:17:52.965Z,971
2022-11-18T11:19:54.103Z,971
2022-11-18T11:21:55.520Z,970.9
2022-11-18T11:23:56.992Z,971.1
2022-11-18T11:28:15.773Z,971
2022-11-18T11:30:01.937Z,971
2022-11-18T11:32:03.653Z,971
2022-11-18T11:34:04.966Z,971
2022-11-18T11:38:07.152Z,971.1
2022-11-18T11:40:08.633Z,971.1
2022-11-18T11:42:10.330Z,971.1
2022-11-18T11:44:11.801Z,971.1
2022-11-18T11:48:14.737Z,971.1
2022-11-18T11:50:25.555Z,971.1
2022-11-18T11:52:18.430Z,971.2
2022-11-18T11:54:19.412Z,971.2
2022-11-18T11:56:22.834Z,971.2
2022-11-18T11:58:21.984Z,971.2
2022-11-18T12:00:23.498Z,971.2
2022-11-18T12:02:25.261Z,971.2
2022-11-18T12:04:26.961Z,971.3
2022-11-18T12:06:28.008Z,971.2
2022-11-18T12:08:29.137Z,971.2
2022-11-18T12:10:30.610Z,971.1
2022-11-18T12:12:31.969Z,971.2
2022-11-18T12:14:37.158Z,971.2
2022-11-18T12:16:35.452Z,971.2
2022-11-18T12:18:37.108Z,971.2
2022-11-18T12:20:39.021Z,971.2
2022-11-18T12:22:40.094Z,971.2
2022-11-18T12:24:41.754Z,971.2
2022-11-18T12:26:42.956Z,971.3
2022-11-18T12:28:44.842Z,971.2
2022-11-18T12:30:46.751Z,971.2
2022-11-18T12:32:47.661Z,971.2
2022-11-18T12:36:50.991Z,971.2
2022-11-18T12:38:52.309Z,971.3
2022-11-18T12:40:53.395Z,971.2
2022-11-18T12:42:54.685Z,971.2
2022-11-18T12:44:56.335Z,971.2
2022-11-18T12:46:57.946Z,971.2
2022-11-18T12:48:59.651Z,971.2
2022-11-18T12:51:01.566Z,971.3
2022-11-18T12:53:03.202Z,971.2
2022-11-18T12:55:04.975Z,971.3
2022-11-18T12:57:06.387Z,971.3
2022-11-18T12:59:07.385Z,971.3
2022-11-18T13:01:08.765Z,971.3
2022-11-18T13:03:10.341Z,971.3
2022-11-18T13:05:11.538Z,971.3
2022-11-18T13:07:13.211Z,971.3
2022-11-18T13:09:14.968Z,971.3
2022-11-18T13:11:16.684Z,971.3
2022-11-18T13:13:17.779Z,971.3
2022-11-18T13:15:19.442Z,971.3
2022-11-18T13:19:22.035Z,971.3
2022-11-18T13:21:23.378Z,971.3
2022-11-18T13:23:24.943Z,971.4
2022-11-18T13:25:26.541Z,971.4
2022-11-18T13:27:28.195Z,971.3
2022-11-18T13:29:29.630Z,971.4
2022-11-18T13:31:31.058Z,971.3
2022-11-18T13:33:32.699Z,971.4
2022-11-18T13:35:33.771Z,971.4
2022-11-18T13:37:35.022Z,971.4
2022-11-18T13:39:36.230Z,971.4
2022-11-18T13:41:37.508Z,971.4
2022-11-18T13:43:38.550Z,971.4
2022-11-18T13:45:40.229Z,971.2
2022-11-18T13:47:41.401Z,971.3
2022-11-18T13:49:46.123Z,971.4
2022-11-18T13:51:43.886Z,971.5
2022-11-18T13:53:44.903Z,971.5
2022-11-18T13:55:46.376Z,971.5
2022-11-18T13:57:47.600Z,971.4
2022-11-18T13:59:48.829Z,971.5
2022-11-18T14:01:50.588Z,971.4
2022-11-18T14:03:52.210Z,971.5
2022-11-18T14:05:53.946Z,971.5
2022-11-18T14:07:55.280Z,971.5
2022-11-18T14:09:56.571Z,971.6
2022-11-18T14:11:58.234Z,971.6
2022-11-18T14:13:59.233Z,971.5
2022-11-18T14:18:02.660Z,971.6
2022-11-18T14:20:04.207Z,971.6
2022-11-18T14:22:07.516Z,971.6
2022-11-18T14:24:06.690Z,971.7
2022-11-18T14:26:07.896Z,971.6
2022-11-18T14:28:09.342Z,971.6
2022-11-18T14:30:13.057Z,971.7
2022-11-18T14:32:12.763Z,971.7
2022-11-18T14:34:13.894Z,971.8
2022-11-18T14:36:15.346Z,971.7
2022-11-18T14:38:43.939Z,971.7
2022-11-18T14:40:18.198Z,971.8
2022-11-18T14:44:20.541Z,971.9
2022-11-18T14:46:21.739Z,971.9
2022-11-18T14:48:26.045Z,971.8
2022-11-18T14:50:25.206Z,971.9
2022-11-18T14:52:26.346Z,971.9
2022-11-18T14:54:27.944Z,971.9
2022-11-18T14:56:28.497Z,972
2022-11-18T14:58:29.885Z,972
2022-11-18T15:00:31.540Z,972.1
2022-11-18T15:02:32.803Z,972.1
2022-11-18T15:04:34.131Z,972.1
2022-11-18T15:06:35.206Z,972.1
2022-11-18T15:08:36.481Z,972.1
2022-11-18T15:10:37.642Z,972.1
2022-11-18T15:12:39.304Z,972.1
2022-11-18T15:14:40.316Z,972.1
2022-11-18T15:16:42.206Z,972.1
2022-11-18T15:18:43.689Z,972.1
2022-11-18T15:20:45.052Z,972.1
2022-11-18T15:22:46.287Z,972.1
2022-11-18T15:24:48.150Z,972.1
2022-11-18T15:26:49.305Z,972.1
2022-11-18T15:28:50.715Z,972.1
2022-11-18T15:30:52.355Z,972.1
2022-11-18T15:32:53.554Z,972.1
2022-11-18T15:34:55.411Z,972.2
2022-11-18T15:36:56.722Z,972.2
2022-11-18T15:38:58.391Z,972.2
2022-11-18T15:43:02.207Z,972.3
2022-11-18T15:45:03.473Z,972.3
2022-11-18T15:47:04.529Z,972.3
2022-11-18T15:49:08.217Z,972.3
2022-11-18T15:51:11.609Z,972.3
2022-11-18T15:53:07.783Z,972.3
2022-11-18T15:55:09.355Z,972.4
2022-11-18T15:59:12.011Z,972.4
2022-11-18T16:01:13.736Z,972.4
2022-11-18T16:03:14.701Z,972.5
2022-11-18T16:05:15.653Z,972.4
2022-11-18T16:09:19.017Z,972.5
2022-11-18T16:11:19.673Z,972.4
2022-11-18T16:15:22.115Z,972.5
2022-11-18T16:17:23.626Z,972.5
2022-11-18T16:19:25.579Z,972.6
2022-11-18T16:21:26.731Z,972.6
2022-11-18T16:23:27.793Z,972.6
2022-11-18T16:25:29.302Z,972.6
2022-11-18T16:27:31.762Z,972.6
2022-11-18T16:29:32.233Z,972.7
2022-11-18T16:31:33.964Z,972.7
2022-11-18T16:33:35.811Z,972.8
2022-11-18T16:35:37.311Z,972.8
2022-11-18T16:36:21.146Z,972.8
2022-11-18T16:38:22.960Z,972.7
2022-11-18T16:40:24.112Z,972.7
2022-11-18T16:42:25.624Z,972.8
2022-11-18T16:44:26.984Z,972.9
2022-11-18T16:46:28.353Z,972.8
2022-11-18T16:48:29.703Z,972.8
2022-11-18T16:50:31.132Z,972.9
2022-11-18T16:52:32.804Z,972.8
2022-11-18T16:54:33.982Z,972.9
2022-11-18T16:56:35.354Z,972.8
2022-11-18T16:58:36.689Z,972.9
2022-11-18T17:01:09.603Z,972.9
2022-11-18T17:02:39.133Z,972.9
2022-11-18T17:04:40.749Z,973
2022-11-18T17:08:43.576Z,973.1
2022-11-18T17:10:44.738Z,973.1
2022-11-18T17:12:45.962Z,973.1
2022-11-18T17:14:47.319Z,973.1
2022-11-18T17:16:48.469Z,973.2
2022-11-18T17:18:50.209Z,973.1
2022-11-18T17:20:51.711Z,973.1
2022-11-18T17:22:53.560Z,973.2
2022-11-18T17:24:54.926Z,973.2
2022-11-18T17:26:56.193Z,973.2
2022-11-18T17:28:58.063Z,973.2
2022-11-18T17:30:59.117Z,973.2
2022-11-18T17:35:02.416Z,973.2
2022-11-18T17:37:06.913Z,973.2
2022-11-18T17:39:05.322Z,973.2
2022-11-18T17:41:06.522Z,973.3
2022-11-18T17:43:07.777Z,973.3
2022-11-18T17:45:09.340Z,973.3
2022-11-18T17:47:10.596Z,973.4
2022-11-18T17:49:12.131Z,973.4
2022-11-18T17:51:13.659Z,973.3
2022-11-18T17:53:14.711Z,973.3
2022-11-18T17:55:16.194Z,973.4
2022-11-18T17:57:17.444Z,973.3
2022-11-18T17:59:19.361Z,973.3
2022-11-18T18:01:20.380Z,973.3
2022-11-18T18:03:21.353Z,973.3
2022-11-18T18:05:22.422Z,973.4
2022-11-18T18:07:23.971Z,973.4
2022-11-18T18:09:28.801Z,973.5
2022-11-18T18:11:26.889Z,973.4
2022-11-18T18:13:28.665Z,973.4
2022-11-18T18:15:29.707Z,973.5
2022-11-18T18:17:30.748Z,973.5
2022-11-18T18:19:32.277Z,973.5
2022-11-18T18:21:34.013Z,973.6
2022-11-18T18:23:35.090Z,973.6
2022-11-18T18:25:36.298Z,973.6
2022-11-18T18:27:37.277Z,973.6
2022-11-18T18:29:38.796Z,973.6
2022-11-18T18:33:41.485Z,973.6
2022-11-18T18:35:42.893Z,973.6
2022-11-18T18:37:43.923Z,973.7
2022-11-18T18:39:44.953Z,973.7
2022-11-18T18:41:46.836Z,973.8
2022-11-18T18:43:48.064Z,973.8
2022-11-18T18:45:49.928Z,973.7
2022-11-18T18:47:51.458Z,973.8
2022-11-18T18:49:52.974Z,973.9
2022-11-18T18:51:54.765Z,973.8
2022-11-18T18:53:56.402Z,973.9
2022-11-18T18:55:58.071Z,973.8
2022-11-18T18:57:59.922Z,973.9
2022-11-18T19:00:01.393Z,973.8
2022-11-18T19:02:03.227Z,973.8
2022-11-18T19:04:04.898Z,973.8
2022-11-18T19:06:41.674Z,973.8
2022-11-18T19:08:08.647Z,973.8
2022-11-18T19:10:09.753Z,973.8
2022-11-18T19:12:11.887Z,973.9
2022-11-18T19:14:13.167Z,973.9
2022-11-18T19:16:14.746Z,973.9
2022-11-18T19:18:15.803Z,973.8
2022-11-18T19:20:17.090Z,973.9
2022-11-18T19:22:18.599Z,973.8
2022-11-18T19:24:42.756Z,973.8
2022-11-18T19:26:21.331Z,973.9
2022-11-18T19:28:22.887Z,973.9
2022-11-18T19:32:25.360Z,973.9
2022-11-18T19:34:26.363Z,973.9
2022-11-18T19:36:27.791Z,973.9
2022-11-18T19:38:29.437Z,973.8
2022-11-18T19:40:30.630Z,973.9
2022-11-18T19:42:31.709Z,973.9
2022-11-18T19:44:33.522Z,973.9
2022-11-18T19:46:35.345Z,973.9
2022-11-18T19:48:36.706Z,973.8
2022-11-18T19:50:38.631Z,973.9
2022-11-18T19:52:39.975Z,973.8
2022-11-18T19:54:41.263Z,973.9
2022-11-18T19:56:42.757Z,973.9
2022-11-18T19:58:44.255Z,973.9
2022-11-18T20:00:45.369Z,973.9
2022-11-18T20:02:46.451Z,973.8
2022-11-18T20:04:48.088Z,973.9
2022-11-18T20:06:49.433Z,973.9
2022-11-18T20:08:50.965Z,974
2022-11-18T20:10:52.064Z,974
2022-11-18T20:12:53.230Z,973.9
2022-11-18T20:14:54.597Z,974
2022-11-18T20:16:56.419Z,973.9
2022-11-18T20:18:58.212Z,974
2022-11-18T20:21:00.106Z,974
2022-11-18T20:23:02.054Z,974
2022-11-18T20:25:03.143Z,974.1
2022-11-18T20:27:04.527Z,974.1
2022-11-18T20:29:06.452Z,974.1
2022-11-18T20:31:07.595Z,974.1
2022-11-18T20:33:09.333Z,974.1
2022-11-18T20:35:10.985Z,974.1
2022-11-18T20:37:12.751Z,974.2
2022-11-18T20:41:15.998Z,974.2
2022-11-18T20:43:17.058Z,974.1
2022-11-18T20:45:18.627Z,974.1
2022-11-18T20:47:20.171Z,974.2
2022-11-18T20:51:22.945Z,974.2
2022-11-18T20:53:24.570Z,974.3
2022-11-18T20:55:26.489Z,974.2
2022-11-18T20:57:28.007Z,974.2
2022-11-18T20:59:29.208Z,974.3
2022-11-18T21:01:30.856Z,974.2
2022-11-18T21:03:31.954Z,974.4
2022-11-18T21:05:33.648Z,974.3
2022-11-18T21:07:35.307Z,974.3
2022-11-18T21:09:36.979Z,974.4
2022-11-18T21:11:38.757Z,974.2
2022-11-18T21:13:40.189Z,974.3
2022-11-18T21:15:41.491Z,974.4
2022-11-18T21:17:42.965Z,974.3
2022-11-18T21:19:48.364Z,974.3
2022-11-18T21:21:45.931Z,974.4
2022-11-18T21:23:47.089Z,974.3
2022-11-18T21:25:48.329Z,974.3
2022-11-18T21:27:49.661Z,974.4
2022-11-18T21:29:50.884Z,974.4
2022-11-18T21:31:52.562Z,974.5
2022-11-18T21:33:53.648Z,974.5
2022-11-18T21:35:55.252Z,974.4
2022-11-18T21:39:58.673Z,974.4
2022-11-18T21:42:00.102Z,974.4
2022-11-18T21:44:06.151Z,974.4
2022-11-18T21:46:02.343Z,974.4
2022-11-18T21:48:03.706Z,974.4
2022-11-18T21:50:05.650Z,974.4
2022-11-18T21:52:06.989Z,974.5
2022-11-18T21:54:08.678Z,974.4
2022-11-18T21:56:10.483Z,974.4
2022-11-18T21:58:11.745Z,974.5
2022-11-18T22:00:13.083Z,974.4
2022-11-18T22:02:14.248Z,974.6
2022-11-18T22:04:16.008Z,974.5
2022-11-18T22:06:17.042Z,974.4
2022-11-18T22:08:18.163Z,974.5
2022-11-18T22:10:19.417Z,974.5
2022-11-18T22:12:21.176Z,974.5
2022-11-18T22:14:22.180Z,974.6
2022-11-18T22:16:23.596Z,974.6
2022-11-18T22:18:25.365Z,974.6
2022-11-18T22:22:28.412Z,974.5
2022-11-18T22:24:29.442Z,974.5
2022-11-18T22:26:31.126Z,974.6
2022-11-18T22:28:32.728Z,974.6
2022-11-18T22:30:33.885Z,974.5
2022-11-18T22:32:35.465Z,974.5
2022-11-18T22:34:37.112Z,974.5
2022-11-18T22:38:39.721Z,974.5
2022-11-18T22:40:41.007Z,974.5
2022-11-18T22:42:42.631Z,974.6
2022-11-18T22:44:44.244Z,974.6
2022-11-18T22:46:45.659Z,974.6
2022-11-18T22:48:46.973Z,974.5
2022-11-18T22:50:48.140Z,974.6
2022-11-18T22:52:49.879Z,974.5
2022-11-18T22:54:51.811Z,974.5
2022-11-18T22:56:53.086Z,974.5
2022-11-18T22:58:54.897Z,974.6
2022-11-18T23:00:56.647Z,974.6
2022-11-18T23:02:57.882Z,974.6
2022-11-18T23:04:59.453Z,974.7
2022-11-18T23:07:01.048Z,974.7
2022-11-18T23:09:01.969Z,974.7
2022-11-18T23:11:03.868Z,974.8
2022-11-18T23:13:05.241Z,974.9
2022-11-18T23:15:06.289Z,974.8
2022-11-18T23:17:08.238Z,974.9
2022-11-18T23:19:09.305Z,974.9
2022-11-18T23:21:10.435Z,974.9
2022-11-18T23:21:54.284Z,974.9
2022-11-18T23:25:57.540Z,974.8
2022-11-18T23:27:59.050Z,975.1
2022-11-18T23:30:00.031Z,975.1
2022-11-18T23:32:01.217Z,975
2022-11-18T23:34:02.380Z,975
2022-11-18T23:36:03.481Z,975.1
2022-11-18T23:38:04.516Z,975
2022-11-18T23:40:05.656Z,975.1
2022-11-18T23:42:07.523Z,975.1
2022-11-18T23:44:09.078Z,975.1
2022-11-18T23:46:10.362Z,975.1
2022-11-18T23:48:11.588Z,975.1
2022-11-18T23:50:13.523Z,975.1
2022-11-18T23:52:15.317Z,975.1
2022-11-18T23:54:16.376Z,975.2
2022-11-18T23:58:19.584Z,975.3
